KRKR/RKR METAR and TAF weather

Enter ICAO airport designator
Station Type Date Time Source
KRKR METAR 2021/07/28 21:15 UTC NOAA

KRKR 282115Z AUTO 07003KT 10SM CLR 35/21 A3001 RMK AO2


Station Type Date Time Source
KRKR Decoded METAR 2021/07/28 21:15 UTC NOAA

Poteau, Robert S Kerr Airport, OK, United States (KRKR) 35-01-18N 094-37-17W
Jul 28, 2021 - 05:15 PM EDT / 2021.07.28 2115 UTC
Wind: from the ENE (070 degrees) at 3 MPH (3 KT):0
Visibility: 10 mile(s):0
Sky conditions: clear
Temperature: 95 F (35 C)
Heat index: 101.3 F (38.5 C):1
Dew Point: 69 F (21 C)
Relative Humidity: 44%
Pressure (altimeter): 30.01 in. Hg (1016 hPa)
ob: KRKR 282115Z AUTO 07003KT 10SM CLR 35/21 A3001 RMK AO2
cycle: 21

Station Type Date Time Source
KRKR TAF UTC NOAA

Error!

Example: see airport list